SDQ weather

Las Américas International Airport
Santo Domingo, Distrito Nacional, Dominican Republic

Public forecast

Using degrees Celsius for public forecast. Weather courtesy of forecast.io.

Current aviation weather report (METAR) for Las Américas International Airport

Retrieved 2019/12/09 12:00 UTC (38 minutes ago):

MDSD 091200Z 02004KT 9999 FEW016 23/22 Q1016

Aviation forecast (TAF) for Las Américas International Airport

Forecast is more than 6 hours old.

Retrieved 2019/12/09 06:06 UTC (7 hours ago):

TAF MDSD 090400Z 0906/1006 06004KT 9999 FEW018CB SCT018 PROB30 0906/0912 8000 -SH FEW014CB SCT016 SCT080